createdAt,value
2018-05-01T00:00:35.934Z,9.51
2018-05-01T00:03:05.020Z,9.39
2018-05-01T00:05:34.394Z,9.32
2018-05-01T00:08:04.392Z,9.25
2018-05-01T00:10:33.733Z,9.31
2018-05-01T00:15:38.526Z,9.56
2018-05-01T00:18:07.964Z,9.78
2018-05-01T00:23:12.927Z,10.06
2018-05-01T00:25:42.006Z,9.88
2018-05-01T00:28:11.037Z,9.80
2018-05-01T00:30:40.090Z,9.78
2018-05-01T00:33:09.173Z,9.78
2018-05-01T00:35:38.220Z,9.84
2018-05-01T00:38:07.265Z,9.89
2018-05-01T00:40:36.366Z,9.93
2018-05-01T00:43:05.579Z,9.99
2018-05-01T00:45:34.625Z,10.02
2018-05-01T00:48:03.882Z,10.03
2018-05-01T00:50:32.907Z,10.12
2018-05-01T00:53:01.961Z,10.02
2018-05-01T00:55:31.006Z,10.01
2018-05-01T00:58:00.062Z,10.03
2018-05-01T01:00:29.141Z,10.01
2018-05-01T01:02:58.189Z,10.03
2018-05-01T01:05:27.217Z,10.16
2018-05-01T01:07:56.347Z,10.20
2018-05-01T01:10:25.410Z,10.30
2018-05-01T01:12:54.488Z,10.38
2018-05-01T01:15:23.785Z,10.27
2018-05-01T01:17:54.926Z,10.21
2018-05-01T01:20:24.163Z,10.16
2018-05-01T01:22:53.189Z,10.13
2018-05-01T01:25:22.234Z,10.14
2018-05-01T01:27:51.330Z,10.18
2018-05-01T01:30:21.543Z,10.18
2018-05-01T01:32:53.617Z,10.14
2018-05-01T01:35:22.834Z,10.13
2018-05-01T01:37:52.046Z,10.13
2018-05-01T01:42:55.993Z,10.24
2018-05-01T01:45:24.252Z,10.29
2018-05-01T01:50:28.205Z,10.23
2018-05-01T01:52:56.498Z,10.20
2018-05-01T01:55:24.736Z,10.30
2018-05-01T02:00:29.683Z,10.45
2018-05-01T02:02:57.951Z,10.45
2018-05-01T02:05:26.206Z,10.45
2018-05-01T02:07:54.673Z,10.47
2018-05-01T02:10:22.925Z,10.50
2018-05-01T02:15:26.877Z,10.56
2018-05-01T02:20:28.795Z,10.75
2018-05-01T02:22:57.086Z,10.62
2018-05-01T02:25:25.334Z,10.77
2018-05-01T02:27:53.658Z,10.73
2018-05-01T02:30:21.915Z,10.63
2018-05-01T02:32:50.178Z,10.73
2018-05-01T02:35:18.431Z,10.86
2018-05-01T02:40:23.413Z,10.83
2018-05-01T02:42:51.660Z,10.93
2018-05-01T02:45:19.909Z,10.82
2018-05-01T02:47:48.172Z,10.75
2018-05-01T02:50:16.425Z,10.72
2018-05-01T02:52:44.694Z,10.71
2018-05-01T02:55:12.968Z,10.70
2018-05-01T02:57:41.303Z,10.67
2018-05-01T03:00:09.541Z,10.68
2018-05-01T03:02:38.718Z,10.66
2018-05-01T03:05:07.073Z,10.66
2018-05-01T03:07:35.317Z,10.73
2018-05-01T03:10:03.567Z,10.73
2018-05-01T03:12:31.902Z,10.80
2018-05-01T03:15:00.151Z,10.73
2018-05-01T03:17:28.393Z,10.68
2018-05-01T03:19:56.838Z,10.71
2018-05-01T03:22:25.066Z,10.73
2018-05-01T03:24:54.269Z,10.69
2018-05-01T03:27:22.682Z,10.66
2018-05-01T03:29:50.929Z,10.63
2018-05-01T03:32:19.210Z,10.62
2018-05-01T03:34:47.481Z,10.65
2018-05-01T03:37:15.725Z,10.65
2018-05-01T03:39:43.986Z,10.57
2018-05-01T03:42:12.245Z,10.68
2018-05-01T03:47:16.512Z,10.73
2018-05-01T03:49:44.752Z,10.74
2018-05-01T03:52:13.029Z,10.67
2018-05-01T03:54:41.304Z,10.67
2018-05-01T03:57:09.549Z,10.66
2018-05-01T03:59:38.830Z,10.66
2018-05-01T04:02:07.104Z,10.77
2018-05-01T04:04:37.259Z,10.77
2018-05-01T04:07:05.565Z,10.71
2018-05-01T04:09:33.837Z,10.69
2018-05-01T04:12:02.106Z,10.63
2018-05-01T04:14:31.528Z,10.66
2018-05-01T04:16:59.795Z,10.66
2018-05-01T04:19:28.071Z,10.68
2018-05-01T04:21:56.609Z,10.65
2018-05-01T04:27:00.812Z,10.84
2018-05-01T04:29:29.071Z,10.74
2018-05-01T04:31:57.333Z,10.73
2018-05-01T04:34:25.668Z,10.86
2018-05-01T04:36:53.918Z,10.82
2018-05-01T04:41:57.930Z,10.97
2018-05-01T04:44:26.220Z,11.15
2018-05-01T04:46:56.918Z,11.13
2018-05-01T04:49:27.174Z,11.11
2018-05-01T04:51:55.602Z,11.06
2018-05-01T04:54:23.873Z,11.02
2018-05-01T04:56:52.134Z,11.07
2018-05-01T04:59:20.854Z,11.07
2018-05-01T05:07:00.606Z,11.50
2018-05-01T05:09:28.893Z,11.42
2018-05-01T05:11:57.215Z,11.48
2018-05-01T05:14:25.483Z,11.43
2018-05-01T05:16:53.772Z,11.40
2018-05-01T05:19:22.052Z,11.49
2018-05-01T05:21:50.296Z,11.52
2018-05-01T05:29:31.059Z,11.91
2018-05-01T05:31:59.321Z,11.77
2018-05-01T05:34:27.578Z,11.74
2018-05-01T05:36:55.846Z,11.67
2018-05-01T05:39:24.134Z,11.73
2018-05-01T05:41:52.402Z,11.78
2018-05-01T05:46:56.877Z,12.01
2018-05-01T05:49:25.138Z,12.21
2018-05-01T05:51:53.532Z,12.23
2018-05-01T05:54:21.797Z,12.05
2018-05-01T05:56:50.198Z,12.11
2018-05-01T05:59:18.451Z,12.18
2018-05-01T06:01:47.438Z,12.21
2018-05-01T06:04:15.696Z,12.48
2018-05-01T06:06:43.985Z,12.41
2018-05-01T06:09:12.235Z,12.18
2018-05-01T06:11:41.151Z,12.30
2018-05-01T06:14:09.408Z,12.38
2018-05-01T06:16:38.298Z,12.33
2018-05-01T06:19:06.559Z,12.38
2018-05-01T06:21:35.278Z,12.56
2018-05-01T06:24:03.527Z,12.48
2018-05-01T06:26:32.148Z,12.41
2018-05-01T06:29:00.412Z,12.35
2018-05-01T06:31:29.310Z,12.57
2018-05-01T06:33:57.581Z,12.36
2018-05-01T06:36:26.289Z,12.25
2018-05-01T06:38:54.558Z,12.40
2018-05-01T06:41:22.846Z,12.44
2018-05-01T06:43:51.631Z,12.33
2018-05-01T06:46:19.837Z,12.44
2018-05-01T06:48:48.118Z,12.55
2018-05-01T06:51:16.382Z,12.62
2018-05-01T06:53:45.630Z,12.74
2018-05-01T06:56:14.220Z,12.79
2018-05-01T07:01:18.206Z,12.76
2018-05-01T07:03:49.249Z,12.97
2018-05-01T07:06:17.916Z,12.71
2018-05-01T07:08:46.150Z,12.81
2018-05-01T07:13:50.365Z,13.45
2018-05-01T07:16:18.638Z,13.37
2018-05-01T07:18:47.642Z,13.73
2018-05-01T07:21:16.320Z,13.93
2018-05-01T07:23:45.815Z,13.96
2018-05-01T07:26:14.063Z,13.75
2018-05-01T07:28:42.366Z,13.66
2018-05-01T07:31:10.623Z,13.67
2018-05-01T07:36:14.772Z,13.84
2018-05-01T07:38:43.041Z,14.16
2018-05-01T07:41:13.047Z,14.21
2018-05-01T07:43:46.764Z,14.02
2018-05-01T07:48:51.038Z,14.06
2018-05-01T07:51:19.550Z,13.67
2018-05-01T07:53:47.877Z,13.41
2018-05-01T07:56:16.209Z,13.50
2018-05-01T07:58:44.473Z,13.51
2018-05-01T08:01:12.735Z,13.23
2018-05-01T08:03:41.025Z,13.51
2018-05-01T08:06:09.768Z,13.25
2018-05-01T08:08:38.217Z,13.47
2018-05-01T08:11:07.487Z,13.15
2018-05-01T08:13:35.744Z,13.17
2018-05-01T08:16:04.042Z,13.55
2018-05-01T08:18:33.057Z,14.26
2018-05-01T08:21:01.354Z,14.49
2018-05-01T08:23:30.074Z,14.86
2018-05-01T08:25:58.314Z,15.12
2018-05-01T08:28:26.579Z,15.14
2018-05-01T08:30:54.869Z,15.57
2018-05-01T08:33:28.759Z,15.95
2018-05-01T08:35:57.633Z,15.96
2018-05-01T08:38:26.810Z,16.45
2018-05-01T08:40:55.089Z,16.58
2018-05-01T08:43:23.341Z,16.80
2018-05-01T08:45:51.895Z,17.48
2018-05-01T08:48:20.199Z,16.91
2018-05-01T08:50:52.099Z,16.53
2018-05-01T08:53:20.395Z,17.15
2018-05-01T08:55:48.883Z,17.28
2018-05-01T08:58:17.160Z,16.72
2018-05-01T09:00:45.827Z,16.63
2018-05-01T09:03:15.012Z,16.58
2018-05-01T09:05:43.838Z,16.40
2018-05-01T09:08:12.856Z,15.84
2018-05-01T09:13:16.865Z,15.55
2018-05-01T09:15:45.141Z,15.27
2018-05-01T09:18:13.659Z,15.18
2018-05-01T09:20:41.853Z,15.02
2018-05-01T09:25:46.267Z,14.36
2018-05-01T09:28:14.688Z,14.64
2018-05-01T09:33:19.879Z,14.51
2018-05-01T09:35:48.154Z,14.61
2018-05-01T09:38:16.606Z,14.37
2018-05-01T09:40:44.897Z,14.09
2018-05-01T09:43:13.162Z,14.09
2018-05-01T09:45:41.418Z,14.25
2018-05-01T09:48:09.869Z,14.49
2018-05-01T09:50:38.136Z,14.23
2018-05-01T09:53:07.349Z,14.13
2018-05-01T09:55:36.387Z,14.17
2018-05-01T09:58:07.229Z,14.25
2018-05-01T10:00:36.717Z,14.12
2018-05-01T10:03:05.828Z,14.29
2018-05-01T10:05:35.027Z,14.16
2018-05-01T10:08:04.097Z,14.13
2018-05-01T10:13:10.017Z,14.84
2018-05-01T10:15:39.652Z,15.10
2018-05-01T10:18:08.667Z,14.83
2018-05-01T10:20:38.397Z,14.72
2018-05-01T10:30:55.293Z,14.62
2018-05-01T10:33:24.472Z,14.39
2018-05-01T10:35:54.019Z,14.19
2018-05-01T10:38:23.088Z,14.51
2018-05-01T10:40:52.512Z,14.46
2018-05-01T10:43:21.947Z,14.32
2018-05-01T10:45:51.136Z,14.41
2018-05-01T10:48:21.054Z,15.00
2018-05-01T10:50:50.130Z,15.32
2018-05-01T10:53:20.808Z,16.44
2018-05-01T10:56:00.068Z,17.43
2018-05-01T10:58:43.211Z,20.34
2018-05-01T11:01:27.385Z,20.99
2018-05-01T11:06:42.935Z,19.31
2018-05-01T11:09:21.992Z,20.13
2018-05-01T11:12:01.977Z,19.86
2018-05-01T11:17:19.796Z,22.36
2018-05-01T11:19:59.730Z,22.84
2018-05-01T11:22:41.030Z,22.98
2018-05-01T11:25:18.424Z,23.83
2018-05-01T11:27:58.860Z,24.81
2018-05-01T11:30:38.331Z,25.84
2018-05-01T11:33:17.075Z,28.24
2018-05-01T11:35:54.634Z,25.50
2018-05-01T11:38:33.179Z,25.87
2018-05-01T11:41:15.460Z,27.72
2018-05-01T11:43:57.521Z,26.50
2018-05-01T11:46:37.629Z,26.74
2018-05-01T11:49:21.451Z,28.22
2018-05-01T11:51:51.900Z,29.12
2018-05-01T11:54:22.210Z,27.56
2018-05-01T11:56:54.629Z,26.99
2018-05-01T11:59:24.858Z,28.33
2018-05-01T12:01:54.357Z,30.37
2018-05-01T12:04:23.422Z,29.18
2018-05-01T12:06:52.774Z,30.83
2018-05-01T12:09:21.846Z,31.24
2018-05-01T12:11:51.258Z,30.62
2018-05-01T12:14:20.307Z,28.97
2018-05-01T12:16:49.358Z,27.67
2018-05-01T12:21:54.810Z,26.99
2018-05-01T12:24:25.061Z,26.92
2018-05-01T12:26:54.613Z,28.64
2018-05-01T12:29:23.669Z,31.96
2018-05-01T12:31:53.424Z,31.10
2018-05-01T12:34:23.707Z,28.92
2018-05-01T12:36:53.271Z,28.76
2018-05-01T12:41:59.309Z,31.77
2018-05-01T12:44:29.049Z,30.21
2018-05-01T12:47:01.034Z,28.73
2018-05-01T12:49:30.133Z,29.85
2018-05-01T12:52:02.734Z,29.48
2018-05-01T12:54:34.817Z,28.41
2018-05-01T12:57:10.678Z,27.68
2018-05-01T12:59:40.947Z,26.27
2018-05-01T13:04:45.829Z,26.06
2018-05-01T13:07:16.065Z,27.46
2018-05-01T13:09:47.082Z,27.98
2018-05-01T13:14:52.415Z,30.98
2018-05-01T13:17:21.615Z,30.95
2018-05-01T13:19:54.208Z,32.52
2018-05-01T13:22:24.347Z,33.44
2018-05-01T13:24:54.882Z,32.89
2018-05-01T13:27:25.526Z,30.20
2018-05-01T13:29:55.717Z,27.87
2018-05-01T13:32:25.049Z,25.38
2018-05-01T13:34:56.002Z,25.40
2018-05-01T13:40:13.725Z,25.35
2018-05-01T13:42:54.265Z,25.40
2018-05-01T13:45:34.183Z,26.12
2018-05-01T13:48:17.571Z,26.47
2018-05-01T13:50:58.504Z,27.31
2018-05-01T13:53:38.210Z,29.09
2018-05-01T13:56:19.886Z,27.78
2018-05-01T13:58:57.092Z,29.42
2018-05-01T14:01:34.769Z,30.48
2018-05-01T14:04:09.568Z,27.80
2018-05-01T14:06:42.304Z,28.10
2018-05-01T14:09:16.061Z,27.42
2018-05-01T14:14:24.940Z,28.28
2018-05-01T14:16:58.268Z,28.20
2018-05-01T14:22:07.054Z,28.98
2018-05-01T14:24:39.417Z,28.48
2018-05-01T14:29:50.679Z,31.83
2018-05-01T14:32:23.853Z,32.86
2018-05-01T14:35:02.003Z,32.86
2018-05-01T14:40:12.789Z,36.02
2018-05-01T14:42:44.997Z,32.51
2018-05-01T14:45:23.308Z,28.52
2018-05-01T14:47:56.852Z,29.06
2018-05-01T14:50:31.606Z,29.72
2018-05-01T14:53:03.950Z,28.70
2018-05-01T14:55:42.628Z,27.45
2018-05-01T15:00:53.933Z,26.97
2018-05-01T15:03:38.112Z,28.80
2018-05-01T15:06:16.630Z,29.66
2018-05-01T15:08:49.555Z,31.04
2018-05-01T15:11:28.832Z,29.19
2018-05-01T15:14:03.091Z,26.43
2018-05-01T15:16:41.144Z,26.29
2018-05-01T15:19:18.616Z,22.75
2018-05-01T15:21:54.063Z,22.80
2018-05-01T15:24:27.258Z,20.97
2018-05-01T15:29:41.779Z,21.65
2018-05-01T15:32:22.808Z,21.07
2018-05-01T15:35:06.719Z,21.68
2018-05-01T15:37:49.660Z,22.80
2018-05-01T15:40:25.806Z,23.65
2018-05-01T15:43:01.819Z,23.55
2018-05-01T15:50:49.264Z,22.44
2018-05-01T15:53:24.461Z,21.99
2018-05-01T15:55:56.691Z,21.91
2018-05-01T16:01:05.161Z,22.28
2018-05-01T16:03:37.830Z,21.82
2018-05-01T16:06:12.667Z,21.43
2018-05-01T16:08:46.419Z,20.99
2018-05-01T16:11:18.624Z,20.68
2018-05-01T16:13:51.001Z,19.72
2018-05-01T16:16:23.647Z,19.29
2018-05-01T16:18:57.177Z,18.80
2018-05-01T16:24:05.861Z,18.92
2018-05-01T16:26:37.245Z,18.55
2018-05-01T16:29:09.045Z,18.63
2018-05-01T16:31:39.915Z,18.49
2018-05-01T16:36:50.434Z,18.12
2018-05-01T16:39:22.969Z,17.74
2018-05-01T16:41:54.696Z,17.80
2018-05-01T16:49:39.260Z,17.18
2018-05-01T16:52:11.799Z,17.25
2018-05-01T16:54:42.784Z,16.91
2018-05-01T16:57:14.931Z,16.79
2018-05-01T16:59:47.535Z,17.02
2018-05-01T17:02:20.537Z,17.01
2018-05-01T17:04:52.713Z,16.87
2018-05-01T17:10:01.625Z,16.76
2018-05-01T17:12:33.884Z,16.50
2018-05-01T17:15:06.425Z,16.45
2018-05-01T17:17:40.104Z,16.39
2018-05-01T17:20:12.755Z,16.38
2018-05-01T17:22:44.431Z,16.40
2018-05-01T17:25:16.225Z,16.37
2018-05-01T17:27:48.016Z,16.45
2018-05-01T17:30:21.288Z,16.39
2018-05-01T17:32:53.317Z,16.35
2018-05-01T17:38:01.857Z,16.46
2018-05-01T17:40:33.383Z,16.04
2018-05-01T17:43:05.064Z,15.90
2018-05-01T17:45:36.253Z,15.90
2018-05-01T17:50:45.209Z,15.83
2018-05-01T17:53:17.575Z,15.72
2018-05-01T17:55:49.150Z,15.66
2018-05-01T17:58:21.761Z,15.68
2018-05-01T18:00:53.553Z,15.49
2018-05-01T18:03:26.007Z,15.43
2018-05-01T18:06:00.210Z,15.39
2018-05-01T18:08:31.977Z,15.26
2018-05-01T18:11:04.078Z,15.37
2018-05-01T18:13:35.032Z,15.42
2018-05-01T18:16:06.985Z,15.21
2018-05-01T18:18:38.808Z,15.14
2018-05-01T18:21:12.283Z,15.04
2018-05-01T18:23:44.475Z,14.99
2018-05-01T18:26:18.285Z,14.91
2018-05-01T18:28:50.280Z,15.08
2018-05-01T18:31:22.901Z,14.94
2018-05-01T18:33:55.002Z,14.88
2018-05-01T18:36:28.083Z,14.82
2018-05-01T18:41:39.103Z,14.78
2018-05-01T18:44:12.665Z,14.54
2018-05-01T18:46:44.168Z,14.33
2018-05-01T18:49:16.369Z,14.30
2018-05-01T18:51:48.596Z,14.16
2018-05-01T18:54:20.968Z,14.10
2018-05-01T18:56:52.095Z,14.06
2018-05-01T18:59:23.639Z,14.01
2018-05-01T19:01:59.039Z,13.92
2018-05-01T19:04:32.231Z,13.89
2018-05-01T19:07:05.881Z,13.81
2018-05-01T19:09:38.959Z,13.66
2018-05-01T19:12:12.000Z,13.60
2018-05-01T19:14:45.066Z,13.44
2018-05-01T19:17:17.057Z,13.42
2018-05-01T19:19:48.836Z,13.28
2018-05-01T19:24:58.176Z,13.27
2018-05-01T19:30:06.477Z,13.22
2018-05-01T19:32:39.111Z,12.98
2018-05-01T19:35:10.784Z,12.80
2018-05-01T19:37:43.042Z,12.61
2018-05-01T19:40:15.103Z,12.88
2018-05-01T19:42:46.916Z,12.82
2018-05-01T19:45:20.438Z,12.69
2018-05-01T19:47:54.408Z,12.60
2018-05-01T19:50:26.093Z,12.58
2018-05-01T19:52:58.351Z,12.58
2018-05-01T19:55:31.455Z,12.33
2018-05-01T19:58:03.890Z,12.21
2018-05-01T20:00:35.912Z,12.11
2018-05-01T20:05:43.650Z,12.14
2018-05-01T20:08:15.715Z,12.30
2018-05-01T20:10:48.263Z,12.20
2018-05-01T20:13:21.176Z,12.06
2018-05-01T20:15:53.208Z,11.97
2018-05-01T20:21:03.116Z,12.12
2018-05-01T20:23:34.986Z,12.19
2018-05-01T20:26:07.586Z,12.25
2018-05-01T20:28:39.651Z,12.24
2018-05-01T20:31:12.955Z,12.02
2018-05-01T20:33:44.749Z,11.98
2018-05-01T20:36:17.530Z,11.88
2018-05-01T20:38:50.450Z,11.95
2018-05-01T20:41:22.840Z,12.10
2018-05-01T20:43:54.518Z,12.08
2018-05-01T20:46:26.876Z,12.04
2018-05-01T20:48:59.343Z,12.02
2018-05-01T20:54:07.994Z,12.28
2018-05-01T20:56:41.228Z,12.25
2018-05-01T20:59:14.067Z,12.25
2018-05-01T21:01:46.362Z,12.39
2018-05-01T21:04:19.279Z,12.27
2018-05-01T21:06:53.152Z,12.22
2018-05-01T21:09:26.766Z,12.20
2018-05-01T21:12:01.309Z,12.12
2018-05-01T21:14:34.590Z,12.04
2018-05-01T21:17:07.239Z,11.96
2018-05-01T21:19:41.610Z,11.95
2018-05-01T21:22:13.960Z,11.89
2018-05-01T21:24:47.618Z,11.90
2018-05-01T21:27:21.470Z,11.95
2018-05-01T21:29:54.508Z,11.99
2018-05-01T21:32:27.073Z,11.89
2018-05-01T21:34:59.043Z,11.96
2018-05-01T21:37:31.172Z,11.86
2018-05-01T21:42:39.056Z,12.18
2018-05-01T21:45:10.661Z,11.98
2018-05-01T21:50:22.082Z,11.93
2018-05-01T21:52:57.186Z,12.06
2018-05-01T21:58:07.046Z,11.87
2018-05-01T22:00:40.604Z,11.99
2018-05-01T22:03:11.908Z,11.71
2018-05-01T22:08:20.407Z,11.67
2018-05-01T22:10:52.344Z,11.67
2018-05-01T22:13:23.797Z,11.53
2018-05-01T22:15:56.090Z,11.31
2018-05-01T22:18:30.815Z,11.24
2018-05-01T22:21:02.109Z,11.24
2018-05-01T22:23:35.008Z,11.19
2018-05-01T22:26:08.752Z,11.11
2018-05-01T22:28:41.097Z,11.21
2018-05-01T22:31:11.947Z,11.17
2018-05-01T22:33:44.336Z,11.01
2018-05-01T22:36:16.583Z,10.96
2018-05-01T22:38:48.352Z,11.02
2018-05-01T22:41:21.038Z,11.22
2018-05-01T22:43:54.124Z,11.21
2018-05-01T22:49:04.826Z,11.35
2018-05-01T22:51:37.282Z,11.58
2018-05-01T22:54:06.330Z,11.34
2018-05-01T22:56:35.389Z,11.26
2018-05-01T22:59:04.446Z,11.31
2018-05-01T23:01:34.372Z,11.13
2018-05-01T23:04:04.051Z,11.06
2018-05-01T23:06:33.899Z,11.18
2018-05-01T23:09:02.955Z,11.16
2018-05-01T23:11:36.905Z,11.26
2018-05-01T23:14:06.080Z,11.09
2018-05-01T23:16:35.448Z,11.00
2018-05-01T23:19:04.489Z,10.97
2018-05-01T23:21:33.538Z,10.94
2018-05-01T23:24:02.610Z,10.97
2018-05-01T23:26:31.679Z,10.88
2018-05-01T23:29:00.721Z,10.97
2018-05-01T23:31:29.771Z,10.95
2018-05-01T23:33:59.897Z,10.99
2018-05-01T23:36:30.007Z,10.99
2018-05-01T23:41:35.702Z,11.00
2018-05-01T23:44:04.874Z,10.92
2018-05-01T23:46:33.910Z,10.79
2018-05-01T23:49:02.964Z,10.84
2018-05-01T23:51:32.049Z,10.72
2018-05-01T23:54:01.094Z,10.62
2018-05-01T23:56:30.156Z,10.56
2018-05-01T23:59:00.106Z,10.56
